Time;durP1;ratioP1;P1;durP2;ratioP2;P2;SDS_P1;SDS_P2;PMS_P1;PMS_P2;Temp;Humidity;BMP_temperature;BMP_pressure;BME280_temperature;BME280_humidity;BME280_pressure;Samples;Min_cycle;Max_cycle;Signal;HPM_P1;HPM_P2
2023/07/04 00:00:43;;;;;;;4.22;2.80;;;;;;;17.32;100.00;93141.81;5069244;28;20110;-76
2023/07/04 00:03:10;;;;;;;3.85;2.70;;;;;;;17.27;100.00;93154.78;5071997;28;20044;-77
2023/07/04 00:05:38;;;;;;;3.97;2.90;;;;;;;17.26;100.00;93162.84;5073800;28;20624;-76
2023/07/04 00:08:05;;;;;;;5.38;3.25;;;;;;;17.25;100.00;93154.25;5067066;28;20053;-75
2023/07/04 00:10:32;;;;;;;3.55;2.47;;;;;;;17.24;100.00;93163.09;5068033;28;20044;-76
2023/07/04 00:12:59;;;;;;;4.22;3.03;;;;;;;17.15;100.00;93152.41;5067856;28;20119;-75
2023/07/04 00:15:27;;;;;;;4.28;2.97;;;;;;;17.11;100.00;93153.16;5067319;28;20569;-76
2023/07/04 00:17:53;;;;;;;3.85;2.63;;;;;;;17.16;100.00;93151.38;5076970;28;20102;-76
2023/07/04 00:20:20;;;;;;;4.35;2.95;;;;;;;17.17;100.00;93160.69;5068443;28;20044;-76
2023/07/04 00:22:47;;;;;;;5.10;3.10;;;;;;;17.14;100.00;93150.84;5066808;28;20045;-76
2023/07/04 00:25:13;;;;;;;4.60;2.92;;;;;;;17.18;100.00;93149.28;5069809;28;20442;-76
2023/07/04 00:27:40;;;;;;;4.63;3.30;;;;;;;17.18;100.00;93148.53;5085661;28;20040;-76
2023/07/04 00:30:10;;;;;;;5.72;3.25;;;;;;;17.06;100.00;93143.50;5079053;28;20157;-76
2023/07/04 00:32:38;;;;;;;4.43;3.20;;;;;;;17.04;100.00;93141.16;5068047;28;20048;-77
2023/07/04 00:35:06;;;;;;;5.15;2.85;;;;;;;16.93;100.00;93111.78;5067297;28;20052;-76
2023/07/04 00:37:33;;;;;;;5.50;3.25;;;;;;;17.14;100.00;93152.66;5067405;28;20051;-77
2023/07/04 00:40:01;;;;;;;5.40;3.20;;;;;;;17.12;100.00;93145.09;5070014;28;20048;-76
2023/07/04 00:42:29;;;;;;;5.03;3.08;;;;;;;17.09;100.00;93138.59;5075581;28;20380;-75
2023/07/04 00:44:58;;;;;;;4.43;3.15;;;;;;;17.04;100.00;93141.16;5086115;28;20047;-75
2023/07/04 00:47:33;;;;;;;4.30;2.97;;;;;;;17.02;100.00;93135.44;5081699;28;20087;-76
2023/07/04 00:50:07;;;;;;;5.28;2.75;;;;;;;16.78;100.00;93104.69;5075826;28;20041;-76
2023/07/04 00:52:36;;;;;;;4.15;3.05;;;;;;;16.94;100.00;93128.91;5070608;28;20110;-76
2023/07/04 00:55:08;;;;;;;4.30;2.63;;;;;;;16.88;100.00;93129.91;5085549;28;20112;-76
2023/07/04 00:57:37;;;;;;;4.22;2.92;;;;;;;16.81;100.00;93124.94;5077233;28;20089;-76
2023/07/04 01:00:13;;;;;;;5.30;3.13;;;;;;;16.64;100.00;93117.31;5073521;28;20083;-76
2023/07/04 01:02:41;;;;;;;6.05;3.00;;;;;;;16.79;100.00;93134.00;5073992;28;20056;-77
2023/07/04 01:05:11;;;;;;;5.78;3.53;;;;;;;16.74;100.00;93134.75;5067867;28;20059;-76
2023/07/04 01:07:45;;;;;;;4.78;3.08;;;;;;;16.75;100.00;93135.53;5067882;28;20052;-77
2023/07/04 01:10:17;;;;;;;5.45;3.28;;;;;;;16.74;100.00;93128.75;5075858;28;20139;-76
2023/07/04 01:12:46;;;;;;;4.30;3.17;;;;;;;16.70;100.00;93131.09;5066780;28;20045;-76
2023/07/04 01:15:13;;;;;;;5.03;2.97;;;;;;;16.60;100.00;93128.41;5066956;28;20132;-76
2023/07/04 01:17:41;;;;;;;4.05;2.90;;;;;;;16.64;100.00;93132.06;5071206;28;20041;-76
2023/07/04 01:20:12;;;;;;;4.60;3.10;;;;;;;16.57;100.00;93134.88;5066634;28;20482;-76
2023/07/04 01:22:46;;;;;;;4.50;3.38;;;;;;;16.51;100.00;93139.25;5075261;28;20049;-77
2023/07/04 01:25:20;;;;;;;5.22;3.00;;;;;;;16.53;100.00;93128.66;5084863;28;20048;-76
2023/07/04 01:27:51;;;;;;;5.10;3.30;;;;;;;16.50;100.00;93123.94;5076840;28;20059;-77
2023/07/04 01:30:20;;;;;;;5.82;3.58;;;;;;;16.50;100.00;93129.13;5073963;28;20053;-75
2023/07/04 01:32:53;;;;;;;5.43;3.35;;;;;;;16.40;100.00;93109.09;5074281;28;20098;-76
2023/07/04 01:35:22;;;;;;;5.63;3.30;;;;;;;16.53;100.00;93126.06;5072493;28;20752;-76
2023/07/04 01:37:49;;;;;;;4.05;3.22;;;;;;;16.47;100.00;93140.00;5086018;28;20162;-76
2023/07/04 01:40:16;;;;;;;4.13;3.03;;;;;;;16.37;100.00;93132.91;5077207;28;20046;-75
2023/07/04 01:42:44;;;;;;;5.30;3.13;;;;;;;16.42;100.00;93140.72;5079412;28;20052;-75
2023/07/04 01:45:13;;;;;;;5.40;3.90;;;;;;;16.34;100.00;93125.66;5081360;28;20128;-75
2023/07/04 01:47:40;;;;;;;5.85;3.30;;;;;;;16.38;100.00;93124.91;5073810;28;20494;-75
2023/07/04 01:50:09;;;;;;;4.47;3.47;;;;;;;16.32;100.00;93119.91;5070942;28;20443;-75
2023/07/04 01:52:35;;;;;;;4.57;3.00;;;;;;;16.35;100.00;93138.38;5071809;28;20057;-76
2023/07/04 01:55:02;;;;;;;7.07;3.53;;;;;;;16.27;100.00;93134.41;5071480;28;20098;-76
2023/07/04 01:57:29;;;;;;;5.15;3.47;;;;;;;16.25;100.00;93127.91;5085597;28;20093;-76
2023/07/04 01:59:56;;;;;;;4.43;3.40;;;;;;;16.23;100.00;93140.31;5070341;28;20105;-76
2023/07/04 02:02:24;;;;;;;5.13;3.50;;;;;;;16.10;100.00;93125.97;5071711;28;20101;-77
2023/07/04 02:04:51;;;;;;;5.15;3.80;;;;;;;16.19;100.00;93136.69;5072974;28;20039;-77
2023/07/04 02:07:18;;;;;;;5.18;3.42;;;;;;;16.18;100.00;93143.66;5080522;28;20441;-76
2023/07/04 02:09:44;;;;;;;5.32;3.53;;;;;;;16.18;100.00;93138.47;5082245;28;20098;-77
2023/07/04 02:12:11;;;;;;;4.28;3.17;;;;;;;16.11;100.00;93133.47;5080512;28;20440;-77
2023/07/04 02:14:38;;;;;;;6.07;3.70;;;;;;;16.14;100.00;93140.78;5079816;28;20056;-77
2023/07/04 02:17:05;;;;;;;4.50;2.80;;;;;;;16.14;100.00;93139.97;5080591;28;20110;-76
2023/07/04 02:19:33;;;;;;;5.97;3.60;;;;;;;16.12;100.00;93135.03;5077385;28;20053;-76
2023/07/04 02:22:00;;;;;;;5.45;3.75;;;;;;;16.12;100.00;93137.63;5079415;28;20074;-77
2023/07/04 02:24:27;;;;;;;5.28;3.53;;;;;;;16.07;100.00;93129.03;5079512;28;20157;-77
2023/07/04 02:26:54;;;;;;;4.45;3.15;;;;;;;16.04;100.00;93119.94;5080079;28;20547;-77
2023/07/04 02:29:21;;;;;;;4.43;3.20;;;;;;;16.08;100.00;93128.81;5079055;28;20044;-77
2023/07/04 02:31:48;;;;;;;5.20;3.30;;;;;;;16.11;100.00;93136.06;5076809;28;20161;-77
2023/07/04 02:34:14;;;;;;;5.03;3.55;;;;;;;16.09;100.00;93134.75;5080861;28;20036;-77
2023/07/04 02:36:42;;;;;;;4.85;3.35;;;;;;;16.07;100.00;93135.03;5080290;28;20053;-77
2023/07/04 02:39:09;;;;;;;5.32;3.22;;;;;;;15.92;100.00;93117.47;5080614;28;20121;-77
2023/07/04 02:41:36;;;;;;;5.20;3.30;;;;;;;16.00;100.00;93137.00;5074313;28;20044;-77
2023/07/04 02:44:03;;;;;;;4.93;3.67;;;;;;;15.97;100.00;93133.09;5079405;28;20551;-77
2023/07/04 02:46:29;;;;;;;5.80;4.03;;;;;;;15.95;100.00;93129.19;5077613;28;20052;-76
2023/07/04 02:48:56;;;;;;;5.78;3.33;;;;;;;15.94;100.00;93128.44;5081885;28;20105;-77
2023/07/04 02:51:23;;;;;;;6.70;4.15;;;;;;;15.89;100.00;93126.53;5079628;28;20043;-77
2023/07/04 02:53:51;;;;;;;5.80;3.35;;;;;;;15.86;100.00;93127.03;5077436;28;20079;-77
2023/07/04 02:56:18;;;;;;;5.65;3.72;;;;;;;15.84;100.00;93136.06;5076888;28;20048;-77
2023/07/04 02:58:44;;;;;;;5.47;3.38;;;;;;;15.76;100.00;93116.56;5078068;28;20498;-77
2023/07/04 03:01:11;;;;;;;6.75;3.88;;;;;;;15.78;100.00;93119.69;5078600;28;20405;-76
2023/07/04 03:03:38;;;;;;;4.40;3.40;;;;;;;15.75;100.00;93120.94;5078405;28;20044;-76
2023/07/04 03:06:05;;;;;;;5.70;3.50;;;;;;;15.80;100.00;93120.22;5076480;28;20448;-76
2023/07/04 03:08:32;;;;;;;7.47;3.67;;;;;;;15.84;100.00;93126.47;5076372;28;20132;-76
2023/07/04 03:11:00;;;;;;;5.65;3.67;;;;;;;15.86;100.00;93114.06;5075421;28;20090;-76
2023/07/04 03:13:27;;;;;;;7.05;4.05;;;;;;;15.89;100.00;93121.34;5080423;28;20044;-76
2023/07/04 03:15:54;;;;;;;7.95;4.28;;;;;;;15.92;100.00;93122.66;5081098;28;20041;-76
2023/07/04 03:18:20;;;;;;;8.98;4.15;;;;;;;15.93;100.00;93116.50;5077904;28;20436;-77
2023/07/04 03:20:48;;;;;;;8.50;5.30;;;;;;;15.94;100.00;93112.09;5078427;28;20051;-77
2023/07/04 03:23:14;;;;;;;9.77;4.00;;;;;;;15.93;100.00;93118.31;5080313;28;20101;-77
2023/07/04 03:25:42;;;;;;;6.57;4.78;;;;;;;15.90;100.00;93122.94;5080433;28;20110;-76
2023/07/04 03:28:10;;;;;;;8.15;4.13;;;;;;;15.89;100.00;93112.81;5081703;28;20067;-76
2023/07/04 03:30:36;;;;;;;6.47;3.67;;;;;;;15.86;100.00;93119.25;5079723;28;20045;-76
2023/07/04 03:33:03;;;;;;;8.35;3.30;;;;;;;15.77;100.00;93105.16;5082922;28;20497;-76
2023/07/04 03:35:30;;;;;;;5.78;3.10;;;;;;;15.83;100.00;93122.31;5076398;28;20502;-77
2023/07/04 03:37:57;;;;;;;5.75;3.53;;;;;;;15.84;100.00;93128.28;5083942;28;20092;-76
2023/07/04 03:40:24;;;;;;;6.22;3.50;;;;;;;15.80;100.00;93128.00;5079699;28;20056;-77
2023/07/04 03:42:50;;;;;;;6.15;4.00;;;;;;;15.76;100.00;93125.13;5081478;28;20043;-77
2023/07/04 03:45:19;;;;;;;6.18;3.58;;;;;;;15.81;100.00;93128.75;5076505;28;20757;-76
2023/07/04 03:47:45;;;;;;;6.07;3.75;;;;;;;15.81;100.00;93132.16;5080247;28;20044;-75
2023/07/04 03:50:13;;;;;;;11.15;4.55;;;;;;;15.81;100.00;93129.56;5080725;28;20044;-76
2023/07/04 03:52:40;;;;;;;5.90;4.03;;;;;;;15.88;100.00;93135.31;5078091;28;20131;-76
2023/07/04 03:55:08;;;;;;;6.07;3.92;;;;;;;15.86;100.00;93128.81;5075117;28;20048;-76
2023/07/04 03:57:35;;;;;;;6.35;4.05;;;;;;;15.89;100.00;93138.69;5076214;28;20044;-76
2023/07/04 04:00:04;;;;;;;6.85;4.28;;;;;;;15.85;100.00;93137.63;5075024;28;20487;-77
2023/07/04 04:02:32;;;;;;;7.53;4.05;;;;;;;15.85;100.00;93138.41;5077832;28;20062;-77
2023/07/04 04:04:58;;;;;;;6.53;4.35;;;;;;;15.75;100.00;93138.31;5080472;28;20044;-77
2023/07/04 04:07:25;;;;;;;5.78;4.43;;;;;;;15.67;100.00;93138.72;5075490;28;20047;-76
2023/07/04 04:09:52;;;;;;;7.47;4.38;;;;;;;15.84;100.00;93142.00;5079444;28;20040;-77
2023/07/04 04:12:19;;;;;;;7.40;5.05;;;;;;;15.93;100.00;93141.63;5076082;28;20048;-77
2023/07/04 04:14:45;;;;;;;7.03;4.75;;;;;;;16.01;100.00;93144.53;5079508;28;20053;-77
2023/07/04 04:17:13;;;;;;;8.07;5.18;;;;;;;16.12;100.00;93152.41;5079755;28;20047;-77
2023/07/04 04:19:41;;;;;;;8.98;4.57;;;;;;;15.99;100.00;93117.31;5079565;28;20127;-77
2023/07/04 04:22:07;;;;;;;7.13;4.93;;;;;;;16.30;100.00;93154.63;5080004;28;20440;-77
2023/07/04 04:24:36;;;;;;;8.90;4.68;;;;;;;16.35;100.00;93153.13;5078144;28;20047;-77
2023/07/04 04:27:08;;;;;;;6.85;5.07;;;;;;;16.45;100.00;93155.00;5078245;28;20063;-77
2023/07/04 04:29:35;;;;;;;7.38;5.20;;;;;;;16.48;100.00;93160.47;5076621;28;20596;-77
2023/07/04 04:32:01;;;;;;;6.43;4.40;;;;;;;16.44;100.00;93138.69;5080131;28;20093;-76
2023/07/04 04:34:28;;;;;;;6.55;4.82;;;;;;;16.71;100.00;93161.16;5078537;28;20052;-76
2023/07/04 04:36:56;;;;;;;9.13;4.88;;;;;;;16.78;100.00;93159.16;5081502;28;20048;-75
2023/07/04 04:39:23;;;;;;;8.55;5.65;;;;;;;16.75;100.00;93158.88;5078297;28;20566;-75
2023/07/04 04:41:52;;;;;;;8.77;5.63;;;;;;;16.87;100.00;93161.28;5079556;28;20109;-75
2023/07/04 04:44:19;;;;;;;8.25;5.20;;;;;;;16.93;100.00;93161.06;5078005;28;20121;-75
2023/07/04 04:46:48;;;;;;;10.80;5.57;;;;;;;17.04;100.00;93166.34;5077787;28;20673;-75
2023/07/04 04:49:17;;;;;;;11.63;6.85;;;;;;;17.02;100.00;93148.41;5078987;28;20071;-76
2023/07/04 04:51:44;;;;;;;10.70;6.80;;;;;;;17.15;100.00;93165.38;5075023;28;20154;-76
2023/07/04 04:54:12;;;;;;;12.43;7.10;;;;;;;17.17;100.00;93165.91;5082474;28;20064;-76
2023/07/04 04:56:40;;;;;;;12.00;7.13;;;;;;;17.26;100.00;93166.19;5076649;28;20052;-75
2023/07/04 04:59:07;;;;;;;12.52;6.85;;;;;;;17.22;100.00;93150.34;5078898;28;20130;-75
2023/07/04 05:01:36;;;;;;;12.50;7.25;;;;;;;17.39;100.00;93157.19;5075120;28;20044;-76
2023/07/04 05:04:04;;;;;;;14.85;7.68;;;;;;;17.52;100.00;93168.91;5078267;28;20040;-76
2023/07/04 05:06:32;;;;;;;13.13;7.28;;;;;;;17.39;100.00;93164.97;5079778;28;20052;-75
2023/07/04 05:08:59;;;;;;;11.65;7.18;;;;;;;17.54;100.00;93172.03;5080227;28;20044;-75
2023/07/04 05:11:27;;;;;;;9.10;5.75;;;;;;;17.69;100.00;93170.53;5082493;28;20445;-76
2023/07/04 05:13:53;;;;;;;10.75;6.47;;;;;;;17.79;100.00;93165.38;5079965;28;20041;-76
2023/07/04 05:16:22;;;;;;;12.15;6.47;;;;;;;17.91;100.00;93167.72;5080327;28;20048;-76
2023/07/04 05:18:49;;;;;;;13.43;6.95;;;;;;;17.81;100.00;93133.97;5081763;28;20743;-76
2023/07/04 05:21:19;;;;;;;11.57;6.82;;;;;;;18.19;100.00;93167.56;5077291;28;20089;-75
2023/07/04 05:23:47;;;;;;;12.52;7.25;;;;;;;18.34;100.00;93166.81;5075645;28;20497;-76
2023/07/04 05:26:16;;;;;;;12.65;6.78;;;;;;;18.47;100.00;93166.28;5070827;28;20049;-76
2023/07/04 05:28:44;;;;;;;14.32;6.63;;;;;;;18.65;100.00;93167.59;5074705;28;20790;-76
2023/07/04 05:31:13;;;;;;;12.48;6.35;;;;;;;18.74;100.00;93157.44;5072080;28;20077;-76
2023/07/04 05:33:40;;;;;;;13.00;6.82;;;;;;;18.83;100.00;93147.28;5071388;28;20101;-76
2023/07/04 05:36:09;;;;;;;13.70;6.30;;;;;;;19.06;100.00;93153.00;5070146;28;20060;-76
2023/07/04 05:38:37;;;;;;;12.23;5.80;;;;;;;19.39;100.00;93165.69;5074374;28;20547;-77
2023/07/04 05:41:07;;;;;;;11.43;5.43;;;;;;;19.56;100.00;93153.13;5070597;28;20052;-76
2023/07/04 05:43:34;;;;;;;7.15;4.35;;;;;;;19.87;100.00;93173.03;5070295;28;20052;-76
2023/07/04 05:46:02;;;;;;;10.20;4.40;;;;;;;20.10;100.00;93171.66;5069373;28;20421;-76
2023/07/04 05:48:29;;;;;;;6.30;3.88;;;;;;;20.35;100.00;93169.91;5074231;28;20045;-76
2023/07/04 05:50:58;;;;;;;6.97;4.55;;;;;;;20.59;100.00;93168.44;5083467;28;20044;-76
2023/07/04 05:53:26;;;;;;;7.57;4.88;;;;;;;20.87;100.00;93172.16;5075830;28;20078;-76
2023/07/04 05:55:53;;;;;;;7.57;3.95;;;;;;;21.15;100.00;93166.41;5067036;28;20572;-76
2023/07/04 05:58:20;;;;;;;8.40;4.07;;;;;;;21.37;100.00;93160.69;5070399;28;20048;-76
2023/07/04 06:00:49;;;;;;;6.40;3.85;;;;;;;21.63;100.00;93165.63;5072357;28;20517;-76
2023/07/04 06:03:17;;;;;;;6.63;3.72;;;;;;;21.94;100.00;93157.41;5076395;28;20703;-77
2023/07/04 06:05:45;;;;;;;8.02;4.03;;;;;;;22.18;100.00;93161.03;5068638;28;20131;-77
2023/07/04 06:08:11;;;;;;;23.52;13.57;;;;;;;22.36;100.00;93162.84;5072941;28;20048;-77
2023/07/04 06:10:38;;;;;;;9.52;4.82;;;;;;;22.52;100.00;93157.41;5070527;28;20048;-76
2023/07/04 06:13:05;;;;;;;8.48;4.82;;;;;;;22.39;100.00;93164.91;5071210;28;20048;-77
2023/07/04 06:15:32;;;;;;;6.50;3.95;;;;;;;22.34;100.00;93169.44;5070320;28;20094;-76
2023/07/04 06:17:59;;;;;;;6.43;4.13;;;;;;;22.37;100.00;93166.25;5075047;28;20469;-77
2023/07/04 06:20:27;;;;;;;5.50;3.58;;;;;;;22.41;100.00;93162.03;5075898;28;20089;-76
2023/07/04 06:22:54;;;;;;;5.70;3.83;;;;;;;22.79;100.00;93158.56;5073697;28;20048;-76
2023/07/04 06:25:20;;;;;;;6.15;4.22;;;;;;;23.20;100.00;93157.09;5080334;28;20121;-77
2023/07/04 06:27:47;;;;;;;6.82;3.97;;;;;;;23.30;99.61;93130.69;5082370;28;20056;-76
2023/07/04 06:30:14;;;;;;;6.55;3.80;;;;;;;23.39;100.00;93161.47;5070202;28;20582;-76
2023/07/04 06:32:41;;;;;;;6.20;3.90;;;;;;;23.53;100.00;93164.91;5070653;28;20578;-77
2023/07/04 06:35:08;;;;;;;6.45;3.92;;;;;;;23.90;96.98;93170.19;5071140;28;20117;-76
2023/07/04 06:37:36;;;;;;;11.65;4.50;;;;;;;24.38;94.07;93173.38;5072547;28;20222;-76
2023/07/04 06:40:04;;;;;;;12.15;5.82;;;;;;;24.67;91.74;93172.22;5073675;28;20117;-76
2023/07/04 06:42:33;;;;;;;13.60;4.78;;;;;;;25.04;88.72;93172.16;5071712;28;20063;-76
2023/07/04 06:44:59;;;;;;;15.25;5.82;;;;;;;24.36;90.79;93184.22;5072105;28;20055;-76
2023/07/04 06:47:26;;;;;;;14.73;5.85;;;;;;;24.61;89.69;93183.91;5070446;28;20048;-77
2023/07/04 06:49:53;;;;;;;10.73;5.10;;;;;;;24.75;90.88;93182.00;5073829;28;20144;-76
2023/07/04 06:52:20;;;;;;;14.75;5.15;;;;;;;24.34;91.57;93178.47;5074090;28;20399;-76
2023/07/04 06:54:50;;;;;;;14.68;5.55;;;;;;;24.37;90.58;93180.50;5069733;28;20091;-76
2023/07/04 06:57:17;;;;;;;22.77;6.35;;;;;;;24.51;90.34;93180.44;5071933;28;20045;-76
2023/07/04 06:59:45;;;;;;;26.25;8.07;;;;;;;24.36;90.52;93176.34;5078224;28;20047;-77
2023/07/04 07:02:13;;;;;;;35.67;11.25;;;;;;;24.60;92.80;93174.47;5070292;28;20092;-76
2023/07/04 07:04:40;;;;;;;26.10;8.30;;;;;;;24.55;89.48;93149.13;5069383;28;20383;-76
2023/07/04 07:07:09;;;;;;;24.05;7.45;;;;;;;25.31;87.92;93163.28;5069404;28;20551;-77
2023/07/04 07:09:40;;;;;;;21.92;7.88;;;;;;;25.55;86.88;93180.56;5070713;28;20052;-77
2023/07/04 07:12:10;;;;;;;23.25;7.75;;;;;;;25.48;88.24;93161.81;5069099;28;20044;-77
2023/07/04 07:14:38;;;;;;;18.85;5.53;;;;;;;25.91;84.67;93170.16;5068975;28;20047;-77
2023/07/04 07:17:05;;;;;;;17.75;6.03;;;;;;;26.09;80.20;93173.56;5068992;28;20111;-77
2023/07/04 07:19:32;;;;;;;15.85;5.68;;;;;;;26.61;81.49;93166.78;5069097;28;20110;-76
2023/07/04 07:22:00;;;;;;;20.05;5.68;;;;;;;27.02;80.15;93181.28;5068909;28;20041;-76
2023/07/04 07:24:28;;;;;;;16.17;5.57;;;;;;;27.39;79.10;93178.22;5068594;28;20044;-77
2023/07/04 07:26:55;;;;;;;18.15;4.45;;;;;;;27.09;75.79;93186.09;5075064;28;20109;-76
2023/07/04 07:29:23;;;;;;;18.88;5.20;;;;;;;27.10;78.29;93181.56;5068911;28;20045;-77
2023/07/04 07:31:50;;;;;;;17.23;4.78;;;;;;;26.54;78.56;93183.06;5073006;28;20097;-77
2023/07/04 07:34:18;;;;;;;12.98;4.18;;;;;;;26.64;77.19;93180.09;5079925;28;20054;-77
2023/07/04 07:36:46;;;;;;;8.30;3.60;;;;;;;26.55;75.52;93188.00;5067932;28;20059;-76
2023/07/04 07:39:15;;;;;;;11.02;4.45;;;;;;;26.36;76.81;93182.28;5073347;28;20044;-76
2023/07/04 07:41:44;;;;;;;10.70;3.53;;;;;;;26.67;77.15;93189.25;5067877;28;20036;-77
2023/07/04 07:44:11;;;;;;;9.25;3.67;;;;;;;26.83;76.64;93186.13;5068071;28;20044;-77
2023/07/04 07:46:39;;;;;;;6.93;3.35;;;;;;;27.41;77.11;93173.44;5068433;28;20044;-77
2023/07/04 07:49:07;;;;;;;7.78;3.67;;;;;;;27.10;73.94;93169.19;5068303;28;20614;-77
2023/07/04 07:51:34;;;;;;;7.78;3.92;;;;;;;27.29;74.13;93170.66;5072613;28;20049;-76
2023/07/04 07:54:02;;;;;;;9.15;3.53;;;;;;;27.59;75.84;93189.19;5068122;28;20498;-76
2023/07/04 07:56:34;;;;;;;8.65;3.97;;;;;;;26.57;74.47;93187.72;5068586;28;20129;-77
2023/07/04 07:59:00;;;;;;;9.50;4.38;;;;;;;26.75;75.59;93191.06;5078091;28;20098;-76
2023/07/04 08:01:30;;;;;;;12.65;4.55;;;;;;;26.89;74.63;93185.63;5071733;28;20086;-76
2023/07/04 08:03:59;;;;;;;13.73;5.38;;;;;;;26.50;76.03;93182.91;5081986;28;20072;-76
2023/07/04 08:06:29;;;;;;;11.68;4.93;;;;;;;27.13;74.09;93186.22;5069771;28;20148;-76
2023/07/04 08:08:57;;;;;;;11.15;4.90;;;;;;;27.75;75.16;93178.88;5077261;28;20065;-77
2023/07/04 08:11:25;;;;;;;9.60;4.38;;;;;;;28.35;74.87;93183.31;5078802;28;20044;-77
2023/07/04 08:13:52;;;;;;;6.95;3.92;;;;;;;28.96;70.62;93186.56;5071310;28;20524;-77
2023/07/04 08:16:21;;;;;;;9.65;5.05;;;;;;;29.41;69.35;93183.09;5078842;28;20099;-78
2023/07/04 08:18:48;;;;;;;5.75;3.28;;;;;;;29.81;66.33;93184.34;5077813;28;20048;-77
2023/07/04 08:21:16;;;;;;;7.10;3.80;;;;;;;30.07;66.45;93169.97;5081660;28;20101;-77
2023/07/04 08:23:43;;;;;;;9.32;4.07;;;;;;;30.49;66.45;93176.03;5078109;28;20395;-78
2023/07/04 08:26:15;;;;;;;7.30;3.58;;;;;;;30.27;62.87;93170.19;5081658;28;20554;-77
2023/07/04 08:28:42;;;;;;;11.23;5.10;;;;;;;30.78;64.69;93172.31;5079227;28;20040;-78
2023/07/04 08:31:10;;;;;;;9.63;3.78;;;;;;;31.09;61.91;93178.00;5077678;28;20093;-78
2023/07/04 08:33:37;;;;;;;7.35;3.65;;;;;;;31.29;63.67;93165.63;5078321;28;20134;-77
2023/07/04 08:36:06;;;;;;;7.60;3.53;;;;;;;31.53;62.46;93171.91;5076620;28;20116;-77
2023/07/04 08:38:34;;;;;;;9.80;3.80;;;;;;;31.82;60.71;93177.84;5076803;28;20047;-77
2023/07/04 08:41:02;;;;;;;6.68;3.75;;;;;;;32.06;60.87;93170.78;5077327;28;20109;-77
2023/07/04 08:43:34;;;;;;;8.50;3.85;;;;;;;32.21;55.71;93179.06;5074121;28;20486;-77
2023/07/04 08:46:03;;;;;;;6.45;3.40;;;;;;;32.04;55.48;93174.91;5077728;28;20040;-77
2023/07/04 08:48:30;;;;;;;7.47;3.53;;;;;;;31.92;54.31;93162.53;5070456;28;20092;-77
2023/07/04 08:51:01;;;;;;;6.57;3.22;;;;;;;32.41;54.60;93171.91;5073826;28;20066;-77
2023/07/04 08:53:28;;;;;;;8.52;3.83;;;;;;;32.62;55.76;93165.47;5075693;28;20048;-77
2023/07/04 08:56:02;;;;;;;8.68;3.10;;;;;;;32.59;54.21;93158.97;5067376;28;20128;-77
2023/07/04 08:58:35;;;;;;;6.78;3.35;;;;;;;32.81;55.29;93166.56;5084351;28;20051;-78
2023/07/04 09:01:06;;;;;;;6.53;3.70;;;;;;;32.80;53.54;93165.78;5071336;28;20093;-78
2023/07/04 09:03:41;;;;;;;6.35;3.10;;;;;;;32.99;53.87;93146.38;5067117;28;20040;-78
2023/07/04 09:06:13;;;;;;;6.05;2.70;;;;;;;33.21;52.07;93169.94;5069247;28;20113;-77
2023/07/04 09:08:59;;;;;;;6.82;2.92;;;;;;;33.10;49.98;93162.53;5066833;28;20118;-78
2023/07/04 09:11:29;;;;;;;6.68;3.63;;;;;;;33.02;50.79;93164.31;5067902;28;20118;-77
2023/07/04 09:13:59;;;;;;;6.18;2.60;;;;;;;31.75;52.35;93145.06;5071855;28;20126;-77
2023/07/04 09:16:31;;;;;;;5.10;3.53;;;;;;;31.96;54.20;93158.81;5074547;28;20102;-77
2023/07/04 09:19:01;;;;;;;5.60;3.50;;;;;;;32.30;56.21;93149.63;5085414;28;20048;-78
2023/07/04 09:21:30;;;;;;;7.05;3.50;;;;;;;32.58;54.45;93154.00;5085126;28;20048;-78
2023/07/04 09:23:59;;;;;;;8.18;3.17;;;;;;;32.88;53.28;93153.38;5075457;28;20052;-78
2023/07/04 09:26:32;;;;;;;4.22;2.38;;;;;;;32.52;50.60;93156.94;5066602;28;20402;-77
2023/07/04 09:29:00;;;;;;;7.30;3.35;;;;;;;33.02;51.47;93147.56;5070827;28;20044;-78
2023/07/04 09:31:30;;;;;;;7.05;3.13;;;;;;;33.22;51.60;93150.94;5068308;28;20036;-78
2023/07/04 09:33:57;;;;;;;6.53;2.90;;;;;;;33.41;47.25;93158.09;5071520;28;20140;-77
2023/07/04 09:36:30;;;;;;;4.43;3.25;;;;;;;33.56;50.57;93153.00;5078430;28;20048;-77
2023/07/04 09:38:59;;;;;;;4.80;2.88;;;;;;;33.64;49.05;93146.66;5068765;28;20049;-78
2023/07/04 09:41:29;;;;;;;4.47;2.80;;;;;;;33.60;48.71;93145.84;5067590;28;20098;-77
2023/07/04 09:44:11;;;;;;;4.43;2.70;;;;;;;33.92;49.96;93147.44;5086228;28;20129;-77
2023/07/04 09:46:38;;;;;;;8.85;2.90;;;;;;;33.96;46.83;93151.66;5085396;28;20076;-78
2023/07/04 09:49:24;;;;;;;8.73;3.42;;;;;;;33.98;48.71;93141.41;5083587;28;20041;-78
2023/07/04 09:52:02;;;;;;;4.38;3.25;;;;;;;34.06;44.69;93144.22;5077814;28;21083;-77
2023/07/04 09:54:31;;;;;;;6.85;3.20;;;;;;;34.06;47.87;93133.56;5073963;28;20526;-78
2023/07/04 09:57:17;;;;;;;5.68;3.33;;;;;;;33.91;45.49;93137.91;5075628;28;20555;-78
2023/07/04 09:59:44;;;;;;;6.95;2.63;;;;;;;33.39;46.53;93135.59;5074762;28;20056;-78
2023/07/04 10:02:15;;;;;;;4.80;3.17;;;;;;;33.32;48.14;93126.38;5077327;28;20074;-77
2023/07/04 10:04:42;;;;;;;7.20;3.67;;;;;;;33.32;49.69;93125.63;5077098;28;20106;-77
2023/07/04 10:07:14;;;;;;;6.43;3.35;;;;;;;33.44;47.98;93137.97;5078809;28;20106;-78
2023/07/04 10:09:44;;;;;;;7.65;3.08;;;;;;;33.18;46.25;93134.91;5072683;28;20464;-77
2023/07/04 10:12:14;;;;;;;6.63;3.13;;;;;;;32.49;47.21;93106.34;5072002;28;20052;-78
2023/07/04 10:14:46;;;;;;;5.63;3.33;;;;;;;32.34;48.56;93137.19;5072008;28;20040;-77
2023/07/04 10:17:17;;;;;;;7.93;3.75;;;;;;;31.10;50.21;93137.09;5069530;28;20436;-77
2023/07/04 10:19:46;;;;;;;5.13;3.78;;;;;;;31.47;50.31;93122.84;5081187;28;20106;-78
2023/07/04 10:22:13;;;;;;;6.32;3.10;;;;;;;31.48;50.53;93119.06;5079476;28;20498;-77
2023/07/04 10:24:40;;;;;;;6.10;2.85;;;;;;;31.90;48.51;93130.22;5072777;28;20078;-77
2023/07/04 10:27:11;;;;;;;3.65;2.40;;;;;;;31.46;48.53;93113.31;5070922;28;20502;-77
2023/07/04 10:29:42;;;;;;;5.10;2.85;;;;;;;31.60;47.49;93110.22;5079581;28;20043;-77
2023/07/04 10:32:13;;;;;;;6.68;3.45;;;;;;;31.42;49.93;93120.44;5070936;28;20548;-77
2023/07/04 10:34:41;;;;;;;6.60;2.95;;;;;;;31.84;49.01;93117.19;5069922;28;20453;-77
2023/07/04 10:37:10;;;;;;;8.60;3.10;;;;;;;32.20;49.66;93111.84;5070954;28;20052;-77
2023/07/04 10:39:38;;;;;;;5.00;2.80;;;;;;;32.55;47.48;93104.16;5075122;28;20109;-78
2023/07/04 10:42:13;;;;;;;4.28;2.38;;;;;;;32.93;47.97;93113.97;5069716;28;20493;-77
2023/07/04 10:44:43;;;;;;;4.20;2.97;;;;;;;33.26;47.35;93108.41;5069453;28;20551;-77
2023/07/04 10:47:15;;;;;;;5.43;2.90;;;;;;;33.64;46.57;93113.94;5072907;28;20097;-77
2023/07/04 10:49:48;;;;;;;3.88;2.50;;;;;;;33.68;42.07;93110.19;5069682;28;20568;-78
2023/07/04 10:52:18;;;;;;;4.88;2.70;;;;;;;33.83;44.53;93095.16;5075288;28;20045;-78
2023/07/04 10:54:45;;;;;;;2.90;1.90;;;;;;;34.04;38.93;93098.47;5069460;28;20045;-78
2023/07/04 10:57:24;;;;;;;4.00;2.22;;;;;;;33.97;43.98;93093.81;5069704;28;20136;-78
2023/07/04 10:59:57;;;;;;;5.00;2.63;;;;;;;34.14;43.72;93073.13;5072704;28;20053;-77
2023/07/04 11:02:30;;;;;;;4.50;2.53;;;;;;;34.64;43.61;93088.88;5069486;28;20117;-77
2023/07/04 11:05:06;;;;;;;3.53;2.25;;;;;;;34.96;42.81;93091.09;5071573;28;20509;-78
2023/07/04 11:07:36;;;;;;;5.55;2.75;;;;;;;35.04;41.72;93081.25;5071607;28;20045;-77
2023/07/04 11:10:05;;;;;;;3.88;2.65;;;;;;;35.11;41.35;93075.19;5080965;28;20149;-78
2023/07/04 11:12:34;;;;;;;4.35;2.03;;;;;;;35.23;41.58;93076.81;5077872;28;20045;-77
2023/07/04 11:15:05;;;;;;;3.65;1.98;;;;;;;35.29;40.59;93080.69;5069512;28;20125;-78
2023/07/04 11:17:34;;;;;;;5.07;2.50;;;;;;;34.63;40.12;93077.47;5071135;28;20052;-78
2023/07/04 11:20:11;;;;;;;6.70;2.47;;;;;;;33.93;40.81;93066.38;5069070;28;20499;-78
2023/07/04 11:22:55;;;;;;;4.95;2.70;;;;;;;33.74;43.16;93073.38;5071176;28;20055;-78
2023/07/04 11:25:54;;;;;;;4.50;2.95;;;;;;;33.76;43.49;93071.09;5073418;28;20367;-78
2023/07/04 11:28:26;;;;;;;5.00;2.90;;;;;;;33.49;42.67;93068.44;5072454;28;20044;-77
2023/07/04 11:31:10;;;;;;;5.13;3.20;;;;;;;33.45;42.97;93057.75;5076128;28;20036;-78
2023/07/04 11:33:42;;;;;;;5.05;3.13;;;;;;;31.69;45.04;93054.25;5070070;28;20094;-78